createdAt,value
2018-07-21T00:00:15.504Z,0.00
2018-07-21T00:01:15.444Z,0.00
2018-07-21T00:02:15.390Z,0.00
2018-07-21T00:03:15.324Z,0.00
2018-07-21T00:04:15.265Z,0.00
2018-07-21T00:05:15.205Z,0.00
2018-07-21T00:06:15.146Z,0.00
2018-07-21T00:07:15.090Z,0.00
2018-07-21T00:08:15.027Z,0.00
2018-07-21T00:09:14.972Z,0.00
2018-07-21T00:10:14.909Z,0.00
2018-07-21T00:11:14.850Z,0.00
2018-07-21T00:12:14.788Z,0.00
2018-07-21T00:13:14.729Z,0.00
2018-07-21T00:14:14.709Z,0.00
2018-07-21T00:15:14.613Z,0.00
2018-07-21T00:16:14.552Z,0.00
2018-07-21T00:17:14.490Z,0.00
2018-07-21T00:18:14.432Z,0.00
2018-07-21T00:19:14.373Z,0.00
2018-07-21T00:20:14.314Z,0.00
2018-07-21T00:21:14.254Z,0.00
2018-07-21T00:22:14.197Z,0.00
2018-07-21T00:23:14.134Z,0.00
2018-07-21T00:24:14.076Z,0.00
2018-07-21T00:25:14.015Z,0.00
2018-07-21T00:26:13.956Z,0.00
2018-07-21T00:27:13.899Z,0.00
2018-07-21T00:28:13.840Z,0.00
2018-07-21T00:29:13.777Z,0.00
2018-07-21T00:30:13.719Z,0.00
2018-07-21T00:31:13.672Z,0.00
2018-07-21T00:32:13.599Z,0.00
2018-07-21T00:33:13.535Z,0.00
2018-07-21T00:34:13.476Z,0.00
2018-07-21T00:35:13.420Z,0.00
2018-07-21T00:36:13.361Z,0.00
2018-07-21T00:37:13.300Z,0.00
2018-07-21T00:38:13.246Z,0.00
2018-07-21T00:39:13.184Z,0.00
2018-07-21T00:40:13.122Z,0.00
2018-07-21T00:41:13.061Z,0.00
2018-07-21T00:42:13.002Z,0.00
2018-07-21T00:43:12.944Z,0.00
2018-07-21T00:44:12.882Z,0.00
2018-07-21T00:45:12.824Z,0.00
2018-07-21T00:46:12.764Z,0.00
2018-07-21T00:47:12.704Z,0.00
2018-07-21T00:48:12.645Z,0.00
2018-07-21T00:49:12.585Z,0.00
2018-07-21T00:50:12.528Z,0.00
2018-07-21T00:51:12.466Z,0.00
2018-07-21T00:52:12.407Z,0.00
2018-07-21T00:53:12.344Z,0.00
2018-07-21T00:54:12.286Z,0.00
2018-07-21T00:55:12.228Z,0.00
2018-07-21T00:56:12.168Z,0.00
2018-07-21T00:57:12.146Z,0.00
2018-07-21T00:58:12.053Z,0.00
2018-07-21T00:59:11.990Z,0.00
2018-07-21T01:00:11.929Z,0.00
2018-07-21T01:01:11.870Z,0.00
2018-07-21T01:02:11.809Z,0.00
2018-07-21T01:03:11.750Z,0.00
2018-07-21T01:04:11.690Z,0.00
2018-07-21T01:05:11.631Z,0.00
2018-07-21T01:06:11.572Z,0.00
2018-07-21T01:07:11.515Z,0.00
2018-07-21T01:08:11.454Z,0.00
2018-07-21T01:09:11.393Z,0.00
2018-07-21T01:10:11.333Z,0.00
2018-07-21T01:11:11.301Z,0.00
2018-07-21T01:12:11.213Z,0.00
2018-07-21T01:13:11.153Z,0.00
2018-07-21T01:14:11.095Z,0.00
2018-07-21T01:15:11.041Z,0.00
2018-07-21T01:16:10.976Z,0.00
2018-07-21T01:17:10.915Z,0.00
2018-07-21T01:18:10.856Z,0.00
2018-07-21T01:19:10.795Z,0.00
2018-07-21T01:20:10.735Z,0.00
2018-07-21T01:21:10.678Z,0.00
2018-07-21T01:22:10.617Z,0.00
2018-07-21T01:23:10.558Z,0.00
2018-07-21T01:24:10.499Z,0.00
2018-07-21T01:25:10.437Z,0.00
2018-07-21T01:26:10.380Z,0.00
2018-07-21T01:27:10.319Z,0.00
2018-07-21T01:28:10.264Z,0.00
2018-07-21T01:29:10.200Z,0.00
2018-07-21T01:30:10.140Z,0.00
2018-07-21T01:31:10.082Z,0.00
2018-07-21T01:32:10.020Z,0.00
2018-07-21T01:33:09.975Z,0.00
2018-07-21T01:34:09.901Z,0.00
2018-07-21T01:35:09.842Z,0.00
2018-07-21T01:36:09.781Z,0.00
2018-07-21T01:37:09.723Z,0.00
2018-07-21T01:38:09.662Z,0.00
2018-07-21T01:39:09.603Z,0.00
2018-07-21T01:40:09.542Z,0.00
2018-07-21T01:41:09.483Z,0.00
2018-07-21T01:42:09.422Z,0.00
2018-07-21T01:43:09.364Z,0.00
2018-07-21T01:44:09.303Z,0.00
2018-07-21T01:45:09.243Z,0.00
2018-07-21T01:46:09.184Z,0.00
2018-07-21T01:47:09.125Z,0.00
2018-07-21T01:48:09.065Z,0.00
2018-07-21T01:49:09.003Z,0.00
2018-07-21T01:50:08.950Z,0.00
2018-07-21T01:51:08.885Z,0.00
2018-07-21T01:52:08.833Z,0.00
2018-07-21T01:53:08.767Z,0.00
2018-07-21T01:54:08.707Z,0.00
2018-07-21T01:55:08.649Z,0.00
2018-07-21T01:56:08.589Z,0.00
2018-07-21T01:57:08.529Z,0.00
2018-07-21T01:58:08.468Z,0.00
2018-07-21T01:59:08.410Z,0.00
2018-07-21T02:00:08.348Z,0.00
2018-07-21T02:01:08.289Z,0.00
2018-07-21T02:02:08.233Z,0.00
2018-07-21T02:03:08.170Z,0.00
2018-07-21T02:04:08.113Z,0.00
2018-07-21T02:05:08.051Z,0.00
2018-07-21T02:06:07.991Z,0.00
2018-07-21T02:07:07.935Z,0.00
2018-07-21T02:08:07.872Z,0.00
2018-07-21T02:09:07.810Z,0.00
2018-07-21T02:10:07.752Z,0.00
2018-07-21T02:11:07.691Z,0.00
2018-07-21T02:12:07.633Z,0.00
2018-07-21T02:13:07.581Z,0.00
2018-07-21T02:14:07.517Z,0.00
2018-07-21T02:15:07.453Z,0.00
2018-07-21T02:16:07.394Z,0.00
2018-07-21T02:17:07.336Z,0.00
2018-07-21T02:18:07.274Z,0.00
2018-07-21T02:19:07.216Z,0.00
2018-07-21T02:20:07.154Z,0.00
2018-07-21T02:21:07.096Z,0.00
2018-07-21T02:22:07.036Z,0.00
2018-07-21T02:23:06.978Z,0.00
2018-07-21T02:24:06.915Z,0.00
2018-07-21T02:25:06.858Z,0.00
2018-07-21T02:26:06.798Z,0.00
2018-07-21T02:27:06.783Z,0.00
2018-07-21T02:28:06.677Z,0.00
2018-07-21T02:29:06.617Z,0.00
2018-07-21T02:30:06.559Z,0.00
2018-07-21T02:31:06.498Z,0.00
2018-07-21T02:32:06.436Z,0.00
2018-07-21T02:33:06.379Z,0.00
2018-07-21T02:34:06.318Z,0.00
2018-07-21T02:35:06.259Z,0.00
2018-07-21T02:36:06.200Z,0.00
2018-07-21T02:37:06.141Z,0.00
2018-07-21T02:38:06.081Z,0.00
2018-07-21T02:39:06.018Z,0.00
2018-07-21T02:40:05.961Z,0.00
2018-07-21T02:41:05.900Z,0.00
2018-07-21T02:42:05.843Z,0.00
2018-07-21T02:43:05.781Z,0.00
2018-07-21T02:44:05.724Z,0.00
2018-07-21T02:45:05.659Z,0.00
2018-07-21T02:46:05.602Z,0.00
2018-07-21T02:47:05.545Z,0.00
2018-07-21T02:48:05.482Z,0.00
2018-07-21T02:49:05.420Z,0.00
2018-07-21T02:50:05.363Z,0.00
2018-07-21T02:51:05.305Z,0.00
2018-07-21T02:52:05.243Z,0.00
2018-07-21T02:53:05.184Z,0.00
2018-07-21T02:54:05.125Z,0.00
2018-07-21T02:55:05.064Z,0.00
2018-07-21T02:56:05.004Z,0.00
2018-07-21T02:57:04.945Z,0.00
2018-07-21T02:58:04.884Z,0.00
2018-07-21T02:59:04.832Z,0.00
2018-07-21T03:00:04.767Z,0.00
2018-07-21T03:01:04.708Z,0.00
2018-07-21T03:02:04.651Z,0.00
2018-07-21T03:03:04.587Z,0.00
2018-07-21T03:04:04.527Z,0.00
2018-07-21T03:05:04.474Z,0.00
2018-07-21T03:06:04.412Z,0.00
2018-07-21T03:07:04.350Z,0.00
2018-07-21T03:08:04.289Z,0.00
2018-07-21T03:09:04.228Z,0.00
2018-07-21T03:10:04.225Z,0.00
2018-07-21T03:11:04.112Z,0.00
2018-07-21T03:12:04.047Z,0.00
2018-07-21T03:13:03.992Z,0.00
2018-07-21T03:14:03.954Z,0.00
2018-07-21T03:15:03.875Z,0.00
2018-07-21T03:16:03.810Z,0.00
2018-07-21T03:17:03.752Z,0.00
2018-07-21T03:18:03.695Z,0.00
2018-07-21T03:19:03.633Z,0.00
2018-07-21T03:20:03.575Z,0.00
2018-07-21T03:21:03.514Z,0.00
2018-07-21T03:22:03.456Z,0.00
2018-07-21T03:23:03.450Z,0.00
2018-07-21T03:24:03.338Z,0.00
2018-07-21T03:25:03.276Z,0.00
2018-07-21T03:26:03.216Z,0.00
2018-07-21T03:27:03.156Z,0.00
2018-07-21T03:28:03.099Z,0.00
2018-07-21T03:29:03.041Z,0.00
2018-07-21T03:30:02.981Z,0.00
2018-07-21T03:31:02.922Z,0.00
2018-07-21T03:32:02.859Z,0.00
2018-07-21T03:33:02.802Z,0.00
2018-07-21T03:34:02.738Z,0.00
2018-07-21T03:35:02.680Z,0.00
2018-07-21T03:36:02.621Z,0.00
2018-07-21T03:37:02.564Z,0.00
2018-07-21T03:38:02.500Z,0.00
2018-07-21T03:39:02.456Z,0.00
2018-07-21T03:40:02.380Z,0.00
2018-07-21T03:41:02.323Z,0.00
2018-07-21T03:42:02.266Z,0.00
2018-07-21T03:43:02.204Z,0.00
2018-07-21T03:44:02.147Z,0.00
2018-07-21T03:45:02.085Z,0.00
2018-07-21T03:46:02.024Z,0.00
2018-07-21T03:47:01.966Z,0.00
2018-07-21T03:48:01.907Z,0.00
2018-07-21T03:49:01.846Z,0.00
2018-07-21T03:50:01.786Z,0.00
2018-07-21T03:51:01.728Z,0.00
2018-07-21T03:52:01.667Z,0.00
2018-07-21T03:53:01.608Z,0.00
2018-07-21T03:54:01.553Z,0.00
2018-07-21T03:55:01.535Z,0.00
2018-07-21T03:56:01.430Z,0.00
2018-07-21T03:57:01.370Z,0.00
2018-07-21T03:58:01.310Z,0.00
2018-07-21T03:59:01.252Z,0.00
2018-07-21T04:00:01.193Z,0.00
2018-07-21T04:01:01.132Z,0.00
2018-07-21T04:02:01.071Z,0.00
2018-07-21T04:03:01.012Z,0.00
2018-07-21T04:04:00.952Z,0.00
2018-07-21T04:05:00.894Z,0.00
2018-07-21T04:06:00.834Z,0.00
2018-07-21T04:07:00.775Z,0.00
2018-07-21T04:08:00.715Z,0.00
2018-07-21T04:09:00.662Z,0.00
2018-07-21T04:10:00.602Z,0.00
2018-07-21T04:11:00.537Z,0.00
2018-07-21T04:12:00.480Z,0.00
2018-07-21T04:13:00.418Z,0.00
2018-07-21T04:14:00.362Z,0.00
2018-07-21T04:15:00.297Z,0.00
2018-07-21T04:16:00.237Z,0.00
2018-07-21T04:17:00.183Z,0.00
2018-07-21T04:18:00.131Z,0.00
2018-07-21T04:19:00.058Z,0.00
2018-07-21T04:20:00.000Z,0.00
2018-07-21T04:20:59.942Z,0.00
2018-07-21T04:21:59.879Z,0.00
2018-07-21T04:22:59.820Z,0.00
2018-07-21T04:23:59.762Z,0.00
2018-07-21T04:24:59.704Z,0.00
2018-07-21T04:25:59.644Z,0.00
2018-07-21T04:26:59.584Z,0.00
2018-07-21T04:27:59.524Z,0.00
2018-07-21T04:28:59.466Z,0.00
2018-07-21T04:29:59.405Z,0.00
2018-07-21T04:30:59.347Z,0.00
2018-07-21T04:31:59.289Z,5.63
2018-07-21T04:32:59.227Z,5.63
2018-07-21T04:33:59.170Z,5.63
2018-07-21T04:34:59.108Z,5.63
2018-07-21T04:35:59.051Z,5.63
2018-07-21T04:36:58.990Z,5.63
2018-07-21T04:37:58.930Z,5.63
2018-07-21T04:38:58.871Z,5.63
2018-07-21T04:39:58.810Z,5.63
2018-07-21T04:40:58.751Z,5.63
2018-07-21T04:41:58.693Z,5.63
2018-07-21T04:42:58.635Z,5.63
2018-07-21T04:43:58.573Z,5.63
2018-07-21T04:44:58.513Z,5.63
2018-07-21T04:45:58.455Z,5.63
2018-07-21T04:46:58.395Z,5.63
2018-07-21T04:47:58.336Z,5.63
2018-07-21T04:48:58.277Z,0.00
2018-07-21T04:49:58.218Z,0.00
2018-07-21T04:50:58.159Z,5.63
2018-07-21T04:51:58.098Z,5.63
2018-07-21T04:52:58.040Z,5.63
2018-07-21T04:53:58.025Z,5.63
2018-07-21T04:54:57.920Z,5.63
2018-07-21T04:55:57.862Z,5.63
2018-07-21T04:56:57.802Z,5.63
2018-07-21T04:57:57.742Z,5.63
2018-07-21T04:58:57.684Z,5.63
2018-07-21T04:59:57.625Z,5.63
2018-07-21T05:00:57.623Z,5.63
2018-07-21T05:01:57.502Z,11.25
2018-07-21T05:02:57.444Z,11.25
2018-07-21T05:03:57.385Z,11.25
2018-07-21T05:04:57.325Z,11.25
2018-07-21T05:05:57.267Z,11.25
2018-07-21T05:06:57.207Z,11.25
2018-07-21T05:07:57.148Z,11.25
2018-07-21T05:08:57.088Z,11.25
2018-07-21T05:09:57.029Z,11.25
2018-07-21T05:10:56.970Z,11.25
2018-07-21T05:11:56.909Z,11.25
2018-07-21T05:12:56.852Z,11.25
2018-07-21T05:13:56.790Z,11.25
2018-07-21T05:14:56.732Z,11.25
2018-07-21T05:15:56.671Z,11.25
2018-07-21T05:16:56.612Z,11.25
2018-07-21T05:17:56.554Z,11.25
2018-07-21T05:18:56.496Z,11.25
2018-07-21T05:19:56.491Z,11.25
2018-07-21T05:20:56.376Z,11.25
2018-07-21T05:21:56.320Z,5.63
2018-07-21T05:22:56.258Z,5.63
2018-07-21T05:23:56.199Z,5.63
2018-07-21T05:24:56.136Z,5.63
2018-07-21T05:25:56.079Z,5.63
2018-07-21T05:26:56.021Z,5.63
2018-07-21T05:27:55.959Z,5.63
2018-07-21T05:28:55.900Z,5.63
2018-07-21T05:29:55.841Z,5.63
2018-07-21T05:30:55.783Z,5.63
2018-07-21T05:31:55.724Z,5.63
2018-07-21T05:32:55.665Z,5.63
2018-07-21T05:33:55.604Z,5.63
2018-07-21T05:34:55.544Z,5.63
2018-07-21T05:35:55.483Z,5.63
2018-07-21T05:36:55.425Z,5.63
2018-07-21T05:37:55.366Z,5.63
2018-07-21T05:38:55.307Z,5.63
2018-07-21T05:39:55.245Z,11.25
2018-07-21T05:40:55.186Z,11.25
2018-07-21T05:41:55.127Z,11.25
2018-07-21T05:42:55.071Z,11.25
2018-07-21T05:43:55.009Z,11.25
2018-07-21T05:44:54.949Z,11.25
2018-07-21T05:45:54.888Z,11.25
2018-07-21T05:46:54.830Z,11.25
2018-07-21T05:47:54.771Z,11.25
2018-07-21T05:48:54.710Z,11.25
2018-07-21T05:49:54.655Z,11.25
2018-07-21T05:50:54.592Z,11.25
2018-07-21T05:51:54.533Z,11.25
2018-07-21T05:52:54.474Z,16.88
2018-07-21T05:53:54.413Z,16.88
2018-07-21T05:54:54.354Z,16.88
2018-07-21T05:55:54.294Z,16.88
2018-07-21T05:56:54.233Z,16.88
2018-07-21T05:57:54.174Z,16.88
2018-07-21T05:58:54.115Z,22.50
2018-07-21T05:59:54.054Z,22.50
2018-07-21T06:00:53.998Z,22.50
2018-07-21T06:01:53.936Z,28.13
2018-07-21T06:02:53.979Z,28.13
2018-07-21T06:03:53.815Z,28.13
2018-07-21T06:04:53.757Z,33.75
2018-07-21T06:05:53.697Z,33.75
2018-07-21T06:06:53.636Z,33.75
2018-07-21T06:07:53.579Z,39.38
2018-07-21T06:08:53.519Z,45.00
2018-07-21T06:09:53.460Z,45.00
2018-07-21T06:10:53.395Z,45.00
2018-07-21T06:11:53.342Z,45.00
2018-07-21T06:12:53.280Z,45.00
2018-07-21T06:13:53.220Z,45.00
2018-07-21T06:14:53.160Z,45.00
2018-07-21T06:15:53.101Z,45.00
2018-07-21T06:16:53.070Z,45.00
2018-07-21T06:17:52.981Z,45.00
2018-07-21T06:18:52.922Z,45.00
2018-07-21T06:19:52.865Z,45.00
2018-07-21T06:20:52.815Z,39.38
2018-07-21T06:21:52.741Z,39.38
2018-07-21T06:22:52.683Z,39.38
2018-07-21T06:23:52.722Z,39.38
2018-07-21T06:24:52.563Z,39.38
2018-07-21T06:25:52.502Z,39.38
2018-07-21T06:26:52.444Z,39.38
2018-07-21T06:27:52.383Z,39.38
2018-07-21T06:28:52.324Z,33.75
2018-07-21T06:29:52.266Z,33.75
2018-07-21T06:30:52.211Z,33.75
2018-07-21T06:31:52.145Z,33.75
2018-07-21T06:32:52.149Z,33.75
2018-07-21T06:33:52.028Z,33.75
2018-07-21T06:34:51.968Z,33.75
2018-07-21T06:35:51.907Z,28.13
2018-07-21T06:36:51.848Z,28.13
2018-07-21T06:37:51.789Z,28.13
2018-07-21T06:38:51.729Z,28.13
2018-07-21T06:39:51.669Z,28.13
2018-07-21T06:40:51.614Z,28.13
2018-07-21T06:41:51.550Z,28.13
2018-07-21T06:42:51.490Z,28.13
2018-07-21T06:43:51.442Z,28.13
2018-07-21T06:44:51.369Z,28.13
2018-07-21T06:45:51.309Z,28.13
2018-07-21T06:46:51.250Z,28.13
2018-07-21T06:47:51.192Z,28.13
2018-07-21T06:48:51.136Z,22.50
2018-07-21T06:49:51.072Z,22.50
2018-07-21T06:50:51.015Z,22.50
2018-07-21T06:51:50.952Z,16.88
2018-07-21T06:52:50.894Z,16.88
2018-07-21T06:53:50.834Z,16.88
2018-07-21T06:54:50.774Z,16.88
2018-07-21T06:55:50.715Z,22.50
2018-07-21T06:56:50.654Z,22.50
2018-07-21T06:57:50.595Z,22.50
2018-07-21T06:58:50.537Z,22.50
2018-07-21T06:59:50.482Z,22.50
2018-07-21T07:00:50.416Z,22.50
2018-07-21T07:01:50.359Z,22.50
2018-07-21T07:02:50.298Z,28.13
2018-07-21T07:03:50.240Z,28.13
2018-07-21T07:04:50.180Z,28.13
2018-07-21T07:05:50.118Z,28.13
2018-07-21T07:06:50.060Z,28.13
2018-07-21T07:07:49.997Z,28.13
2018-07-21T07:08:49.939Z,28.13
2018-07-21T07:09:49.885Z,28.13
2018-07-21T07:10:49.821Z,28.13
2018-07-21T07:11:49.764Z,28.13
2018-07-21T07:12:49.700Z,28.13
2018-07-21T07:13:49.642Z,28.13
2018-07-21T07:14:49.583Z,28.13
2018-07-21T07:15:49.521Z,28.13
2018-07-21T07:16:49.465Z,28.13
2018-07-21T07:17:49.403Z,28.13
2018-07-21T07:18:49.343Z,28.13
2018-07-21T07:19:49.283Z,22.50
2018-07-21T07:20:49.222Z,22.50
2018-07-21T07:21:49.163Z,22.50
2018-07-21T07:22:49.105Z,22.50
2018-07-21T07:23:49.042Z,22.50
2018-07-21T07:24:48.984Z,22.50
2018-07-21T07:25:48.929Z,22.50
2018-07-21T07:26:48.865Z,22.50
2018-07-21T07:27:48.807Z,22.50
2018-07-21T07:28:48.747Z,22.50
2018-07-21T07:29:48.688Z,22.50
2018-07-21T07:30:48.627Z,22.50
2018-07-21T07:31:48.566Z,22.50
2018-07-21T07:32:48.506Z,22.50
2018-07-21T07:33:48.445Z,22.50
2018-07-21T07:34:48.388Z,22.50
2018-07-21T07:35:48.330Z,22.50
2018-07-21T07:36:48.274Z,22.50
2018-07-21T07:37:48.210Z,22.50
2018-07-21T07:38:48.146Z,22.50
2018-07-21T07:39:48.087Z,22.50
2018-07-21T07:40:48.030Z,22.50
2018-07-21T07:41:47.968Z,22.50
2018-07-21T07:42:47.909Z,22.50
2018-07-21T07:43:47.848Z,22.50
2018-07-21T07:44:47.788Z,28.13
2018-07-21T07:45:47.733Z,28.13
2018-07-21T07:46:47.670Z,28.13
2018-07-21T07:47:47.610Z,33.75
2018-07-21T07:48:47.551Z,33.75
2018-07-21T07:49:47.498Z,33.75
2018-07-21T07:50:47.431Z,39.38
2018-07-21T07:51:47.370Z,39.38
2018-07-21T07:52:47.311Z,39.38
2018-07-21T07:53:47.252Z,39.38
2018-07-21T07:54:47.191Z,39.38
2018-07-21T07:55:47.130Z,39.38
2018-07-21T07:56:47.072Z,33.75
2018-07-21T07:57:47.011Z,33.75
2018-07-21T07:58:46.952Z,39.38
2018-07-21T07:59:46.892Z,39.38
2018-07-21T08:00:46.832Z,39.38
2018-07-21T08:01:46.773Z,39.38
2018-07-21T08:02:46.718Z,45.00
2018-07-21T08:03:46.652Z,45.00
2018-07-21T08:04:46.593Z,45.00
2018-07-21T08:05:46.535Z,45.00
2018-07-21T08:06:46.472Z,50.63
2018-07-21T08:07:46.412Z,50.63
2018-07-21T08:08:46.356Z,56.25
2018-07-21T08:09:46.296Z,56.25
2018-07-21T08:10:46.236Z,61.88
2018-07-21T08:11:46.175Z,61.88
2018-07-21T08:12:46.115Z,67.50
2018-07-21T08:13:46.053Z,67.50
2018-07-21T08:14:45.995Z,67.50
2018-07-21T08:15:45.936Z,67.50
2018-07-21T08:16:45.875Z,67.50
2018-07-21T08:17:45.817Z,61.88
2018-07-21T08:18:45.758Z,61.88
2018-07-21T08:19:45.695Z,61.88
2018-07-21T08:20:45.638Z,61.88
2018-07-21T08:21:45.577Z,61.88
2018-07-21T08:22:45.517Z,61.88
2018-07-21T08:23:45.458Z,56.25
2018-07-21T08:24:45.395Z,56.25
2018-07-21T08:25:45.340Z,56.25
2018-07-21T08:26:45.280Z,56.25
2018-07-21T08:27:45.221Z,56.25
2018-07-21T08:28:45.156Z,56.25
2018-07-21T08:29:45.102Z,56.25
2018-07-21T08:30:45.039Z,61.88
2018-07-21T08:31:44.980Z,61.88
2018-07-21T08:32:44.920Z,67.50
2018-07-21T08:33:44.876Z,67.50
2018-07-21T08:34:44.815Z,73.13
2018-07-21T08:35:44.740Z,73.13
2018-07-21T08:36:44.680Z,67.50
2018-07-21T08:37:44.624Z,67.50
2018-07-21T08:38:44.562Z,67.50
2018-07-21T08:39:44.496Z,61.88
2018-07-21T08:40:44.442Z,61.88
2018-07-21T08:41:44.376Z,61.88
2018-07-21T08:42:44.322Z,61.88
2018-07-21T08:43:44.261Z,61.88
2018-07-21T08:44:44.203Z,61.88
2018-07-21T08:45:44.142Z,67.50
2018-07-21T08:46:44.083Z,67.50
2018-07-21T08:47:44.030Z,67.50
2018-07-21T08:48:43.963Z,61.88
2018-07-21T08:49:43.949Z,56.25
2018-07-21T08:50:43.862Z,50.63
2018-07-21T08:51:43.786Z,50.63
2018-07-21T08:52:43.730Z,56.25
2018-07-21T08:53:43.663Z,56.25
2018-07-21T08:54:43.605Z,56.25
2018-07-21T08:55:43.594Z,61.88
2018-07-21T08:56:43.491Z,61.88
2018-07-21T08:57:43.435Z,61.88
2018-07-21T08:58:43.368Z,67.50
2018-07-21T08:59:43.309Z,67.50
2018-07-21T09:00:43.246Z,67.50
2018-07-21T09:01:43.187Z,67.50
2018-07-21T09:02:43.130Z,61.88
2018-07-21T09:03:43.066Z,67.50
2018-07-21T09:04:43.012Z,73.13
2018-07-21T09:05:42.966Z,73.13
2018-07-21T09:06:42.889Z,78.75
2018-07-21T09:07:42.829Z,84.38
2018-07-21T09:08:42.770Z,78.75
2018-07-21T09:09:42.712Z,78.75
2018-07-21T09:10:42.652Z,78.75
2018-07-21T09:11:42.590Z,84.38
2018-07-21T09:12:42.535Z,90.00
2018-07-21T09:13:42.474Z,90.00
2018-07-21T09:14:42.414Z,90.00
2018-07-21T09:15:42.354Z,90.00
2018-07-21T09:16:42.297Z,90.00
2018-07-21T09:17:42.239Z,95.63
2018-07-21T09:18:42.175Z,95.63
2018-07-21T09:19:42.115Z,95.63
2018-07-21T09:20:42.062Z,95.63
2018-07-21T09:21:42.000Z,95.63
2018-07-21T09:22:41.936Z,101.25
2018-07-21T09:23:41.878Z,106.88
2018-07-21T09:24:41.818Z,106.88
2018-07-21T09:25:41.757Z,112.50
2018-07-21T09:26:41.699Z,112.50
2018-07-21T09:27:41.648Z,118.13
2018-07-21T09:28:41.581Z,118.13
2018-07-21T09:29:41.527Z,112.50
2018-07-21T09:30:41.461Z,118.13
2018-07-21T09:31:41.402Z,123.75
2018-07-21T09:32:41.343Z,123.75
2018-07-21T09:33:41.286Z,118.13
2018-07-21T09:34:41.231Z,118.13
2018-07-21T09:35:41.166Z,106.88
2018-07-21T09:36:41.114Z,101.25
2018-07-21T09:37:41.062Z,101.25
2018-07-21T09:38:41.004Z,101.25
2018-07-21T09:39:40.948Z,106.88
2018-07-21T09:40:40.873Z,112.50
2018-07-21T09:41:40.814Z,112.50
2018-07-21T09:42:40.750Z,112.50
2018-07-21T09:43:40.690Z,112.50
2018-07-21T09:44:40.633Z,112.50
2018-07-21T09:45:40.573Z,118.13
2018-07-21T09:46:40.516Z,118.13
2018-07-21T09:47:40.454Z,112.50
2018-07-21T09:48:40.403Z,112.50
2018-07-21T09:49:40.334Z,106.88
2018-07-21T09:50:40.277Z,106.88
2018-07-21T09:51:40.217Z,106.88
2018-07-21T09:52:40.156Z,106.88
2018-07-21T09:53:40.099Z,112.50
2018-07-21T09:54:40.039Z,112.50
2018-07-21T09:55:40.058Z,112.50
2018-07-21T09:56:39.925Z,118.13
2018-07-21T09:57:39.863Z,118.13
2018-07-21T09:58:39.804Z,118.13
2018-07-21T09:59:39.745Z,123.75
2018-07-21T10:00:39.683Z,118.13
2018-07-21T10:01:39.658Z,118.13
2018-07-21T10:02:39.571Z,118.13
2018-07-21T10:03:39.516Z,118.13
2018-07-21T10:04:39.447Z,118.13
2018-07-21T10:05:39.392Z,118.13
2018-07-21T10:06:39.343Z,118.13
2018-07-21T10:07:39.275Z,118.13
2018-07-21T10:08:39.213Z,112.50
2018-07-21T10:09:39.153Z,106.88
2018-07-21T10:10:39.095Z,106.88
2018-07-21T10:11:39.034Z,101.25
2018-07-21T10:12:38.977Z,101.25
2018-07-21T10:13:38.919Z,101.25
2018-07-21T10:14:38.858Z,90.00
2018-07-21T10:15:38.805Z,84.38
2018-07-21T10:16:38.739Z,90.00
2018-07-21T10:17:38.683Z,95.63
2018-07-21T10:18:38.628Z,101.25
2018-07-21T10:19:38.571Z,106.88
2018-07-21T10:20:38.529Z,106.88
2018-07-21T10:21:38.494Z,106.88
2018-07-21T10:22:38.390Z,106.88
2018-07-21T10:23:38.328Z,101.25
2018-07-21T10:24:38.270Z,95.63
2018-07-21T10:25:38.211Z,95.63
2018-07-21T10:26:38.151Z,90.00
2018-07-21T10:27:38.094Z,84.38
2018-07-21T10:28:38.067Z,78.75
2018-07-21T10:29:37.987Z,73.13
2018-07-21T10:30:37.917Z,78.75
2018-07-21T10:31:37.857Z,78.75
2018-07-21T10:32:37.795Z,78.75
2018-07-21T10:33:37.799Z,78.75
2018-07-21T10:34:37.681Z,78.75
2018-07-21T10:35:37.619Z,84.38
2018-07-21T10:36:37.566Z,84.38
2018-07-21T10:37:37.502Z,90.00
2018-07-21T10:38:37.444Z,90.00
2018-07-21T10:39:37.385Z,95.63
2018-07-21T10:40:37.327Z,101.25
2018-07-21T10:41:37.277Z,106.88
2018-07-21T10:42:37.208Z,106.88
2018-07-21T10:43:37.148Z,106.88
2018-07-21T10:44:37.146Z,106.88
2018-07-21T10:45:37.036Z,101.25
2018-07-21T10:46:36.970Z,101.25
2018-07-21T10:47:36.915Z,101.25
2018-07-21T10:48:36.861Z,101.25
2018-07-21T10:49:36.798Z,106.88
2018-07-21T10:50:36.733Z,106.88
2018-07-21T10:51:36.676Z,106.88
2018-07-21T10:52:36.626Z,106.88
2018-07-21T10:53:36.561Z,106.88
2018-07-21T10:54:36.505Z,106.88
2018-07-21T10:55:36.441Z,106.88
2018-07-21T10:56:36.382Z,101.25
2018-07-21T10:57:36.332Z,101.25
2018-07-21T10:58:36.264Z,101.25
2018-07-21T10:59:36.204Z,95.63
2018-07-21T11:00:36.146Z,95.63
2018-07-21T11:01:36.088Z,90.00
2018-07-21T11:02:36.025Z,84.38
2018-07-21T11:03:35.977Z,78.75
2018-07-21T11:04:35.912Z,73.13
2018-07-21T11:05:35.851Z,67.50
2018-07-21T11:06:35.797Z,61.88
2018-07-21T11:07:35.730Z,56.25
2018-07-21T11:08:35.675Z,56.25
2018-07-21T11:09:35.617Z,56.25
2018-07-21T11:10:35.564Z,61.88
2018-07-21T11:11:35.509Z,61.88
2018-07-21T11:12:35.439Z,61.88
2018-07-21T11:13:35.380Z,61.88
2018-07-21T11:14:35.320Z,67.50
2018-07-21T11:15:35.320Z,67.50
2018-07-21T11:16:35.202Z,73.13
2018-07-21T11:17:35.145Z,78.75
2018-07-21T11:18:35.083Z,90.00
2018-07-21T11:19:35.033Z,95.63
2018-07-21T11:20:34.966Z,101.25
2018-07-21T11:21:34.916Z,112.50
2018-07-21T11:22:34.848Z,118.13
2018-07-21T11:23:34.785Z,123.75
2018-07-21T11:24:34.725Z,129.38
2018-07-21T11:25:34.688Z,129.38
2018-07-21T11:26:34.611Z,135.00
2018-07-21T11:27:34.561Z,135.00
2018-07-21T11:28:34.495Z,129.38
2018-07-21T11:29:34.433Z,129.38
2018-07-21T11:30:34.385Z,118.13
2018-07-21T11:31:34.316Z,112.50
2018-07-21T11:32:34.263Z,101.25
2018-07-21T11:33:34.198Z,84.38
2018-07-21T11:34:34.139Z,73.13
2018-07-21T11:35:34.229Z,61.88
2018-07-21T11:36:34.042Z,61.88
2018-07-21T11:37:33.962Z,56.25
2018-07-21T11:38:33.903Z,50.63
2018-07-21T11:39:33.843Z,45.00
2018-07-21T11:40:33.784Z,45.00
2018-07-21T11:41:33.725Z,39.38
2018-07-21T11:42:33.669Z,39.38
2018-07-21T11:43:33.607Z,45.00
2018-07-21T11:44:33.573Z,45.00
2018-07-21T11:45:33.489Z,56.25
2018-07-21T11:46:33.429Z,67.50
2018-07-21T11:47:33.370Z,73.13
2018-07-21T11:48:33.311Z,84.38
2018-07-21T11:49:33.251Z,90.00
2018-07-21T11:50:33.192Z,95.63
2018-07-21T11:51:33.131Z,101.25
2018-07-21T11:52:33.075Z,101.25
2018-07-21T11:53:33.013Z,106.88
2018-07-21T11:54:32.951Z,118.13
2018-07-21T11:55:32.897Z,123.75
2018-07-21T11:56:32.836Z,129.38
2018-07-21T11:57:32.780Z,123.75
2018-07-21T11:58:32.717Z,123.75
2018-07-21T11:59:32.657Z,123.75
2018-07-21T12:00:32.598Z,118.13
2018-07-21T12:01:32.539Z,118.13
2018-07-21T12:02:32.481Z,118.13
2018-07-21T12:03:32.427Z,123.75
2018-07-21T12:04:32.359Z,123.75
2018-07-21T12:05:32.309Z,129.38
2018-07-21T12:06:32.241Z,123.75
2018-07-21T12:07:32.182Z,123.75
2018-07-21T12:08:32.124Z,118.13
2018-07-21T12:09:32.064Z,118.13
2018-07-21T12:10:32.005Z,123.75
2018-07-21T12:11:31.947Z,129.38
2018-07-21T12:12:31.887Z,135.00
2018-07-21T12:13:31.897Z,151.88
2018-07-21T12:14:31.769Z,163.13
2018-07-21T12:15:31.708Z,174.38
2018-07-21T12:16:31.646Z,185.63
2018-07-21T12:17:31.588Z,196.88
2018-07-21T12:18:31.530Z,202.50
2018-07-21T12:19:31.467Z,208.13
2018-07-21T12:20:31.410Z,213.75
2018-07-21T12:21:31.355Z,219.38
2018-07-21T12:22:31.294Z,219.38
2018-07-21T12:23:31.232Z,225.00
2018-07-21T12:24:31.174Z,230.63
2018-07-21T12:25:31.115Z,230.63
2018-07-21T12:26:31.100Z,230.63
2018-07-21T12:27:31.015Z,230.63
2018-07-21T12:28:30.938Z,230.63
2018-07-21T12:29:30.879Z,225.00
2018-07-21T12:30:30.817Z,225.00
2018-07-21T12:31:30.763Z,225.00
2018-07-21T12:32:30.703Z,225.00
2018-07-21T12:33:30.646Z,225.00
2018-07-21T12:34:30.581Z,219.38
2018-07-21T12:35:30.525Z,208.13
2018-07-21T12:36:30.467Z,202.50
2018-07-21T12:37:30.410Z,202.50
2018-07-21T12:38:30.352Z,202.50
2018-07-21T12:39:30.292Z,208.13
2018-07-21T12:40:30.233Z,202.50
2018-07-21T12:41:30.177Z,202.50
2018-07-21T12:42:30.118Z,202.50
2018-07-21T12:43:30.063Z,202.50
2018-07-21T12:44:30.002Z,196.88
2018-07-21T12:45:29.942Z,196.88
2018-07-21T12:46:29.884Z,191.25
2018-07-21T12:47:29.824Z,196.88
2018-07-21T12:48:29.770Z,191.25
2018-07-21T12:49:29.710Z,185.63
2018-07-21T12:50:29.650Z,180.00
2018-07-21T12:51:29.593Z,174.38
2018-07-21T12:52:29.534Z,180.00
2018-07-21T12:53:29.474Z,180.00
2018-07-21T12:54:29.428Z,180.00
2018-07-21T12:55:29.356Z,180.00
2018-07-21T12:56:29.302Z,180.00